sensor_id;sensor_type;location;lat;lon;timestamp;pressure;altitude;pressure_sealevel;temperature;humidity
21109;BME280;10712;52.944;9.098;2024-02-21T00:00:56;101854.66;;;17.18;72.93
21109;BME280;10712;52.944;9.098;2024-02-21T00:03:21;101843.03;;;17.30;72.68
21109;BME280;10712;52.944;9.098;2024-02-21T00:05:47;101837.88;;;17.27;72.59
21109;BME280;10712;52.944;9.098;2024-02-21T00:08:13;101837.88;;;17.27;72.84
21109;BME280;10712;52.944;9.098;2024-02-21T00:10:39;101828.25;;;17.23;72.86
21109;BME280;10712;52.944;9.098;2024-02-21T00:13:05;101827.09;;;17.27;72.64
21109;BME280;10712;52.944;9.098;2024-02-21T00:15:31;101829.91;;;17.39;72.54
21109;BME280;10712;52.944;9.098;2024-02-21T00:17:57;101823.63;;;17.25;72.79
21109;BME280;10712;52.944;9.098;2024-02-21T00:20:22;101819.31;;;17.36;72.59
21109;BME280;10712;52.944;9.098;2024-02-21T00:22:48;101819.13;;;17.26;72.66
21109;BME280;10712;52.944;9.098;2024-02-21T00:25:14;101818.69;;;17.32;72.67
21109;BME280;10712;52.944;9.098;2024-02-21T00:27:40;101814.16;;;17.20;72.71
21109;BME280;10712;52.944;9.098;2024-02-21T00:30:06;101821.91;;;17.37;72.42
21109;BME280;10712;52.944;9.098;2024-02-21T00:32:32;101810.38;;;17.22;72.87
21109;BME280;10712;52.944;9.098;2024-02-21T00:35:00;101819.66;;;17.18;73.17
21109;BME280;10712;52.944;9.098;2024-02-21T00:37:27;101804.44;;;17.17;72.97
21109;BME280;10712;52.944;9.098;2024-02-21T00:39:54;101805.84;;;17.36;72.51
21109;BME280;10712;52.944;9.098;2024-02-21T00:42:20;101796.91;;;17.22;72.73
21109;BME280;10712;52.944;9.098;2024-02-21T00:44:47;101806.72;;;17.23;72.73
21109;BME280;10712;52.944;9.098;2024-02-21T00:47:13;101796.91;;;17.10;72.84
21109;BME280;10712;52.944;9.098;2024-02-21T00:49:39;101791.94;;;17.16;72.95
21109;BME280;10712;52.944;9.098;2024-02-21T00:52:04;101790.22;;;17.15;72.61
21109;BME280;10712;52.944;9.098;2024-02-21T00:54:30;101791.41;;;17.11;73.08
21109;BME280;10712;52.944;9.098;2024-02-21T00:56:56;101788.81;;;17.22;72.89
21109;BME280;10712;52.944;9.098;2024-02-21T00:59:22;101793.69;;;17.17;72.90
21109;BME280;10712;52.944;9.098;2024-02-21T01:01:47;101783.69;;;17.19;72.81
21109;BME280;10712;52.944;9.098;2024-02-21T01:04:13;101779.25;;;17.18;72.97
21109;BME280;10712;52.944;9.098;2024-02-21T01:06:39;101788.53;;;17.27;72.77
21109;BME280;10712;52.944;9.098;2024-02-21T01:09:08;101786.81;;;17.26;72.69
21109;BME280;10712;52.944;9.098;2024-02-21T01:11:34;101787.31;;;16.93;73.42
21109;BME280;10712;52.944;9.098;2024-02-21T01:13:59;101783.13;;;17.14;72.98
21109;BME280;10712;52.944;9.098;2024-02-21T01:16:26;101774.72;;;17.19;72.94
21109;BME280;10712;52.944;9.098;2024-02-21T01:18:52;101771.69;;;17.11;73.20
21109;BME280;10712;52.944;9.098;2024-02-21T01:21:18;101772.13;;;17.30;72.71
21109;BME280;10712;52.944;9.098;2024-02-21T01:23:44;101776.91;;;17.26;72.93
21109;BME280;10712;52.944;9.098;2024-02-21T01:26:09;101775.16;;;17.25;72.77
21109;BME280;10712;52.944;9.098;2024-02-21T01:28:38;101766.31;;;17.23;72.80
21109;BME280;10712;52.944;9.098;2024-02-21T01:31:04;101771.38;;;17.15;72.80
21109;BME280;10712;52.944;9.098;2024-02-21T01:33:30;101759.88;;;17.26;72.67
21109;BME280;10712;52.944;9.098;2024-02-21T01:36:02;101754.47;;;17.39;72.33
21109;BME280;10712;52.944;9.098;2024-02-21T01:38:28;101743.28;;;17.32;72.11
21109;BME280;10712;52.944;9.098;2024-02-21T01:40:54;101743.47;;;17.29;72.13
21109;BME280;10712;52.944;9.098;2024-02-21T01:43:21;101741.78;;;17.28;72.14
21109;BME280;10712;52.944;9.098;2024-02-21T01:45:50;101735.00;;;17.35;72.06
21109;BME280;10712;52.944;9.098;2024-02-21T01:48:19;101723.47;;;17.20;72.48
21109;BME280;10712;52.944;9.098;2024-02-21T01:50:49;101715.47;;;17.31;72.11
21109;BME280;10712;52.944;9.098;2024-02-21T01:53:29;101708.78;;;17.24;72.07
21109;BME280;10712;52.944;9.098;2024-02-21T01:55:56;101710.53;;;17.25;72.09
21109;BME280;10712;52.944;9.098;2024-02-21T01:58:23;101703.63;;;17.34;72.15
21109;BME280;10712;52.944;9.098;2024-02-21T02:00:50;101701.91;;;17.20;72.22
21109;BME280;10712;52.944;9.098;2024-02-21T02:03:16;101696.72;;;17.17;72.27
21109;BME280;10712;52.944;9.098;2024-02-21T02:05:46;101681.09;;;17.22;72.35
21109;BME280;10712;52.944;9.098;2024-02-21T02:08:18;101674.53;;;17.26;72.44
21109;BME280;10712;52.944;9.098;2024-02-21T02:10:45;101668.47;;;17.36;72.13
21109;BME280;10712;52.944;9.098;2024-02-21T02:13:14;101668.47;;;17.36;71.79
21109;BME280;10712;52.944;9.098;2024-02-21T02:15:47;101661.41;;;17.35;71.95
21109;BME280;10712;52.944;9.098;2024-02-21T02:18:15;101656.22;;;17.31;71.82
21109;BME280;10712;52.944;9.098;2024-02-21T02:20:41;101635.56;;;17.19;72.07
21109;BME280;10712;52.944;9.098;2024-02-21T02:23:30;101642.00;;;17.17;72.27
21109;BME280;10712;52.944;9.098;2024-02-21T02:26:00;101626.09;;;17.14;72.40
21109;BME280;10712;52.944;9.098;2024-02-21T02:28:27;101608.38;;;17.22;72.09
21109;BME280;10712;52.944;9.098;2024-02-21T02:30:53;101609.94;;;17.14;72.31
21109;BME280;10712;52.944;9.098;2024-02-21T02:33:19;101603.69;;;17.13;72.72
21109;BME280;10712;52.944;9.098;2024-02-21T02:35:45;101589.69;;;17.21;72.27
21109;BME280;10712;52.944;9.098;2024-02-21T02:38:11;101587.53;;;17.13;72.37
21109;BME280;10712;52.944;9.098;2024-02-21T02:40:39;101599.38;;;17.11;72.63
21109;BME280;10712;52.944;9.098;2024-02-21T02:43:08;101604.22;;;17.18;72.23
21109;BME280;10712;52.944;9.098;2024-02-21T02:45:34;101599.03;;;17.15;72.42
21109;BME280;10712;52.944;9.098;2024-02-21T02:48:00;101617.03;;;17.27;72.08
21109;BME280;10712;52.944;9.098;2024-02-21T02:50:27;101613.16;;;17.19;72.27
21109;BME280;10712;52.944;9.098;2024-02-21T02:52:54;101622.22;;;17.05;72.56
21109;BME280;10712;52.944;9.098;2024-02-21T02:55:20;101622.88;;;16.96;72.91
21109;BME280;10712;52.944;9.098;2024-02-21T02:57:46;101609.66;;;16.93;72.96
21109;BME280;10712;52.944;9.098;2024-02-21T03:00:14;101609.53;;;17.07;72.54
21109;BME280;10712;52.944;9.098;2024-02-21T03:02:42;101600.91;;;17.15;72.48
21109;BME280;10712;52.944;9.098;2024-02-21T03:05:14;101592.81;;;17.02;72.60
21109;BME280;10712;52.944;9.098;2024-02-21T03:07:41;101587.66;;;16.99;72.78
21109;BME280;10712;52.944;9.098;2024-02-21T03:10:08;101578.31;;;16.92;73.00
21109;BME280;10712;52.944;9.098;2024-02-21T03:12:34;101589.41;;;17.00;73.01
21109;BME280;10712;52.944;9.098;2024-02-21T03:15:00;101602.00;;;16.87;73.17
21109;BME280;10712;52.944;9.098;2024-02-21T03:17:26;101617.16;;;16.88;73.26
21109;BME280;10712;52.944;9.098;2024-02-21T03:19:55;101637.19;;;16.84;73.35
21109;BME280;10712;52.944;9.098;2024-02-21T03:22:25;101634.50;;;16.97;73.20
21109;BME280;10712;52.944;9.098;2024-02-21T03:24:51;101630.22;;;16.94;73.22
21109;BME280;10712;52.944;9.098;2024-02-21T03:27:17;101626.09;;;17.01;73.13
21109;BME280;10712;52.944;9.098;2024-02-21T03:29:43;101623.31;;;16.90;73.41
21109;BME280;10712;52.944;9.098;2024-02-21T03:32:09;101611.69;;;16.77;73.78
21109;BME280;10712;52.944;9.098;2024-02-21T03:34:35;101620.28;;;16.94;73.48
21109;BME280;10712;52.944;9.098;2024-02-21T03:37:01;101629.13;;;16.97;73.48
21109;BME280;10712;52.944;9.098;2024-02-21T03:39:27;101626.09;;;17.01;73.34
21109;BME280;10712;52.944;9.098;2024-02-21T03:41:52;101619.97;;;16.99;73.26
21109;BME280;10712;52.944;9.098;2024-02-21T03:44:19;101619.19;;;17.10;72.83
21109;BME280;10712;52.944;9.098;2024-02-21T03:46:45;101610.50;;;17.06;72.76
21109;BME280;10712;52.944;9.098;2024-02-21T03:49:10;101629.09;;;17.09;72.50
21109;BME280;10712;52.944;9.098;2024-02-21T03:51:37;101613.63;;;17.00;73.12
21109;BME280;10712;52.944;9.098;2024-02-21T03:54:03;101614.69;;;16.98;73.09
21109;BME280;10712;52.944;9.098;2024-02-21T03:56:28;101608.53;;;17.08;72.89
21109;BME280;10712;52.944;9.098;2024-02-21T03:58:54;101612.84;;;17.11;72.84
21109;BME280;10712;52.944;9.098;2024-02-21T04:01:21;101609.72;;;17.04;72.96
21109;BME280;10712;52.944;9.098;2024-02-21T04:03:46;101606.69;;;17.09;73.08
21109;BME280;10712;52.944;9.098;2024-02-21T04:06:12;101607.56;;;17.09;73.31
21109;BME280;10712;52.944;9.098;2024-02-21T04:08:39;101598.19;;;17.02;73.25
21109;BME280;10712;52.944;9.098;2024-02-21T04:11:05;101603.06;;;16.97;73.59
21109;BME280;10712;52.944;9.098;2024-02-21T04:13:30;101597.25;;;16.90;73.61
21109;BME280;10712;52.944;9.098;2024-02-21T04:15:56;101608.75;;;17.05;73.48
21109;BME280;10712;52.944;9.098;2024-02-21T04:18:22;101614.03;;;17.07;73.65
21109;BME280;10712;52.944;9.098;2024-02-21T04:20:48;101606.69;;;17.09;73.60
21109;BME280;10712;52.944;9.098;2024-02-21T04:23:14;101606.69;;;17.09;73.56
21109;BME280;10712;52.944;9.098;2024-02-21T04:25:40;101598.44;;;16.99;73.85
21109;BME280;10712;52.944;9.098;2024-02-21T04:28:05;101603.13;;;17.08;73.74
21109;BME280;10712;52.944;9.098;2024-02-21T04:30:31;101602.94;;;17.11;73.69
21109;BME280;10712;52.944;9.098;2024-02-21T04:32:57;101596.78;;;17.09;73.94
21109;BME280;10712;52.944;9.098;2024-02-21T04:35:23;101602.84;;;17.00;74.05
21109;BME280;10712;52.944;9.098;2024-02-21T04:37:49;101597.47;;;17.00;74.14
21109;BME280;10712;52.944;9.098;2024-02-21T04:40:15;101606.06;;;17.05;74.21
21109;BME280;10712;52.944;9.098;2024-02-21T04:42:42;101600.69;;;17.05;74.25
21109;BME280;10712;52.944;9.098;2024-02-21T04:45:09;101596.91;;;17.08;74.44
21109;BME280;10712;52.944;9.098;2024-02-21T04:47:35;101604.34;;;17.04;74.62
21109;BME280;10712;52.944;9.098;2024-02-21T04:50:01;101583.88;;;17.02;74.75
21109;BME280;10712;52.944;9.098;2024-02-21T04:52:26;101591.63;;;17.06;74.62
21109;BME280;10712;52.944;9.098;2024-02-21T04:54:52;101584.53;;;17.05;74.76
21109;BME280;10712;52.944;9.098;2024-02-21T04:57:18;101581.19;;;17.14;74.70
21109;BME280;10712;52.944;9.098;2024-02-21T04:59:44;101582.50;;;16.96;75.34
21109;BME280;10712;52.944;9.098;2024-02-21T05:02:11;101581.75;;;16.81;75.74
21109;BME280;10712;52.944;9.098;2024-02-21T05:04:37;101583.69;;;16.92;75.66
21109;BME280;10712;52.944;9.098;2024-02-21T05:07:04;101582.81;;;16.91;75.85
21109;BME280;10712;52.944;9.098;2024-02-21T05:09:31;101582.16;;;16.88;75.99
21109;BME280;10712;52.944;9.098;2024-02-21T05:11:57;101586.06;;;16.84;76.13
21109;BME280;10712;52.944;9.098;2024-02-21T05:14:25;101577.03;;;16.85;76.30
21109;BME280;10712;52.944;9.098;2024-02-21T05:16:53;101579.47;;;16.88;76.17
21109;BME280;10712;52.944;9.098;2024-02-21T05:19:18;101569.72;;;16.87;76.35
21109;BME280;10712;52.944;9.098;2024-02-21T05:21:45;101573.56;;;16.83;76.33
21109;BME280;10712;52.944;9.098;2024-02-21T05:24:11;101565.06;;;16.89;76.35
21109;BME280;10712;52.944;9.098;2024-02-21T05:26:37;101570.22;;;16.92;76.58
21109;BME280;10712;52.944;9.098;2024-02-21T05:29:03;101574.53;;;16.82;76.54
21109;BME280;10712;52.944;9.098;2024-02-21T05:34:16;101563.88;;;16.93;76.20
21109;BME280;10712;52.944;9.098;2024-02-21T05:36:42;101566.34;;;16.96;76.19
21109;BME280;10712;52.944;9.098;2024-02-21T05:39:08;101565.16;;;16.75;76.62
21109;BME280;10712;52.944;9.098;2024-02-21T05:41:34;101556.38;;;16.73;76.90
21109;BME280;10712;52.944;9.098;2024-02-21T05:43:59;101546.44;;;16.86;76.61
21109;BME280;10712;52.944;9.098;2024-02-21T05:46:25;101547.09;;;16.77;76.92
21109;BME280;10712;52.944;9.098;2024-02-21T05:48:51;101558.38;;;16.82;76.77
21109;BME280;10712;52.944;9.098;2024-02-21T05:51:17;101551.38;;;16.92;76.64
21109;BME280;10712;52.944;9.098;2024-02-21T05:53:42;101551.50;;;16.78;76.92
21109;BME280;10712;52.944;9.098;2024-02-21T05:56:15;101555.69;;;16.82;77.05
21109;BME280;10712;52.944;9.098;2024-02-21T05:58:41;101549.47;;;16.94;76.50
21109;BME280;10712;52.944;9.098;2024-02-21T06:01:07;101546.22;;;16.89;76.52
21109;BME280;10712;52.944;9.098;2024-02-21T06:03:34;101547.72;;;16.93;76.41
21109;BME280;10712;52.944;9.098;2024-02-21T06:06:01;101536.97;;;16.93;76.39
21109;BME280;10712;52.944;9.098;2024-02-21T06:08:27;101538.69;;;16.94;76.27
21109;BME280;10712;52.944;9.098;2024-02-21T06:10:53;101546.41;;;16.99;76.15
21109;BME280;10712;52.944;9.098;2024-02-21T06:13:23;101545.78;;;16.82;76.54
21109;BME280;10712;52.944;9.098;2024-02-21T06:15:50;101540.63;;;16.92;76.35
21109;BME280;10712;52.944;9.098;2024-02-21T06:18:20;101544.28;;;16.91;76.48
21109;BME280;10712;52.944;9.098;2024-02-21T06:20:47;101545.75;;;16.95;76.24
21109;BME280;10712;52.944;9.098;2024-02-21T06:23:15;101547.53;;;16.83;76.55
21109;BME280;10712;52.944;9.098;2024-02-21T06:25:42;101535.44;;;16.89;76.46
21109;BME280;10712;52.944;9.098;2024-02-21T06:28:09;101547.72;;;16.93;76.39
21109;BME280;10712;52.944;9.098;2024-02-21T06:30:35;101537.63;;;16.84;76.74
21109;BME280;10712;52.944;9.098;2024-02-21T06:33:01;101537.16;;;16.90;76.73
21109;BME280;10712;52.944;9.098;2024-02-21T06:35:28;101536.53;;;16.74;76.98
21109;BME280;10712;52.944;9.098;2024-02-21T06:37:54;101530.31;;;16.61;77.44
21109;BME280;10712;52.944;9.098;2024-02-21T06:40:23;101531.28;;;16.72;77.19
21109;BME280;10712;52.944;9.098;2024-02-21T06:42:50;101527.53;;;16.62;77.49
21109;BME280;10712;52.944;9.098;2024-02-21T06:45:16;101538.50;;;16.72;77.22
21109;BME280;10712;52.944;9.098;2024-02-21T06:47:43;101542.47;;;16.79;77.00
21109;BME280;10712;52.944;9.098;2024-02-21T06:50:09;101546.91;;;16.80;76.92
21109;BME280;10712;52.944;9.098;2024-02-21T06:52:36;101546.66;;;16.83;76.59
21109;BME280;10712;52.944;9.098;2024-02-21T06:55:02;101554.72;;;16.83;76.81
21109;BME280;10712;52.944;9.098;2024-02-21T06:57:31;101549.66;;;16.91;76.50
21109;BME280;10712;52.944;9.098;2024-02-21T06:59:57;101544.50;;;16.88;76.44
21109;BME280;10712;52.944;9.098;2024-02-21T07:02:23;101548.91;;;16.89;76.61
21109;BME280;10712;52.944;9.098;2024-02-21T07:04:49;101550.72;;;16.88;76.50
21109;BME280;10712;52.944;9.098;2024-02-21T07:07:15;101547.63;;;16.82;76.57
21109;BME280;10712;52.944;9.098;2024-02-21T07:09:41;101546.88;;;16.92;76.47
21109;BME280;10712;52.944;9.098;2024-02-21T07:12:07;101540.38;;;16.95;76.29
21109;BME280;10712;52.944;9.098;2024-02-21T07:14:33;101547.38;;;16.98;76.22
21109;BME280;10712;52.944;9.098;2024-02-21T07:16:59;101547.94;;;16.90;76.33
21109;BME280;10712;52.944;9.098;2024-02-21T07:19:25;101539.94;;;17.01;76.18
21109;BME280;10712;52.944;9.098;2024-02-21T07:21:50;101544.44;;;17.13;75.81
21109;BME280;10712;52.944;9.098;2024-02-21T07:24:16;101550.28;;;17.07;75.99
21109;BME280;10712;52.944;9.098;2024-02-21T07:26:43;101556.31;;;16.98;76.37
21109;BME280;10712;52.944;9.098;2024-02-21T07:29:09;101561.41;;;16.90;76.44
21109;BME280;10712;52.944;9.098;2024-02-21T07:31:42;101562.59;;;16.86;76.78
21109;BME280;10712;52.944;9.098;2024-02-21T07:34:09;101567.94;;;17.11;76.16
21109;BME280;10712;52.944;9.098;2024-02-21T07:36:35;101566.13;;;16.99;76.43
21109;BME280;10712;52.944;9.098;2024-02-21T07:39:03;101564.09;;;16.90;76.80
21109;BME280;10712;52.944;9.098;2024-02-21T07:41:30;101566.25;;;16.85;77.01
21109;BME280;10712;52.944;9.098;2024-02-21T07:43:56;101561.50;;;16.88;76.75
21109;BME280;10712;52.944;9.098;2024-02-21T07:46:22;101555.69;;;16.82;77.09
21109;BME280;10712;52.944;9.098;2024-02-21T07:48:48;101553.44;;;16.88;76.95
21109;BME280;10712;52.944;9.098;2024-02-21T07:51:14;101554.53;;;16.86;77.03
21109;BME280;10712;52.944;9.098;2024-02-21T07:53:43;101556.34;;;16.85;77.05
21109;BME280;10712;52.944;9.098;2024-02-21T07:56:14;101556.13;;;16.76;77.44
21109;BME280;10712;52.944;9.098;2024-02-21T07:58:41;101551.38;;;16.92;77.03
21109;BME280;10712;52.944;9.098;2024-02-21T08:01:08;101553.59;;;17.11;76.34
21109;BME280;10712;52.944;9.098;2024-02-21T08:03:34;101559.97;;;16.97;76.66
21109;BME280;10712;52.944;9.098;2024-02-21T08:06:00;101552.44;;;17.02;76.68
21109;BME280;10712;52.944;9.098;2024-02-21T08:08:26;101550.41;;;16.93;76.88
21109;BME280;10712;52.944;9.098;2024-02-21T08:10:52;101549.16;;;16.86;77.13
21109;BME280;10712;52.944;9.098;2024-02-21T08:13:18;101548.19;;;16.87;77.45
21109;BME280;10712;52.944;9.098;2024-02-21T08:15:43;101538.38;;;16.86;77.13
21109;BME280;10712;52.944;9.098;2024-02-21T08:18:10;101541.06;;;16.86;77.31
21109;BME280;10712;52.944;9.098;2024-02-21T08:20:36;101533.72;;;16.88;77.20
21109;BME280;10712;52.944;9.098;2024-02-21T08:23:02;101541.06;;;16.86;77.24
21109;BME280;10712;52.944;9.098;2024-02-21T08:25:28;101530.06;;;16.89;76.88
21109;BME280;10712;52.944;9.098;2024-02-21T08:28:00;101531.19;;;17.10;75.93
21109;BME280;10712;52.944;9.098;2024-02-21T08:30:26;101532.41;;;17.06;75.85
21109;BME280;10712;52.944;9.098;2024-02-21T08:32:52;101529.16;;;17.01;75.76
21109;BME280;10712;52.944;9.098;2024-02-21T08:35:19;101519.66;;;17.08;75.73
21109;BME280;10712;52.944;9.098;2024-02-21T08:37:48;101532.41;;;17.06;75.85
21109;BME280;10712;52.944;9.098;2024-02-21T08:40:14;101520.81;;;16.93;76.07
21109;BME280;10712;52.944;9.098;2024-02-21T08:42:43;101526.47;;;17.01;76.11
21109;BME280;10712;52.944;9.098;2024-02-21T08:45:10;101520.94;;;17.15;75.73
21109;BME280;10712;52.944;9.098;2024-02-21T08:47:39;101521.41;;;17.09;75.55
21109;BME280;10712;52.944;9.098;2024-02-21T08:50:05;101515.50;;;17.04;75.61
21109;BME280;10712;52.944;9.098;2024-02-21T08:52:32;101515.34;;;17.18;75.32
21109;BME280;10712;52.944;9.098;2024-02-21T08:54:58;101518.69;;;17.09;75.43
21109;BME280;10712;52.944;9.098;2024-02-21T08:57:24;101521.41;;;17.09;75.25
21109;BME280;10712;52.944;9.098;2024-02-21T08:59:49;101514.28;;;17.08;75.27
21109;BME280;10712;52.944;9.098;2024-02-21T09:02:16;101512.88;;;17.15;74.93
21109;BME280;10712;52.944;9.098;2024-02-21T09:04:42;101508.75;;;17.22;74.81
21109;BME280;10712;52.944;9.098;2024-02-21T09:07:08;101509.66;;;17.10;75.04
21109;BME280;10712;52.944;9.098;2024-02-21T09:09:34;101500.97;;;17.07;75.22
21109;BME280;10712;52.944;9.098;2024-02-21T09:11:59;101500.41;;;17.14;75.10
21109;BME280;10712;52.944;9.098;2024-02-21T09:14:32;101495.75;;;17.16;74.89
21109;BME280;10712;52.944;9.098;2024-02-21T09:16:58;101492.31;;;17.14;75.18
21109;BME280;10712;52.944;9.098;2024-02-21T09:19:25;101491.06;;;17.07;75.34
21109;BME280;10712;52.944;9.098;2024-02-21T09:21:51;101496.66;;;17.04;75.70
21109;BME280;10712;52.944;9.098;2024-02-21T09:24:18;101488.00;;;17.12;75.45
21109;BME280;10712;52.944;9.098;2024-02-21T09:26:43;101487.16;;;17.11;75.39
21109;BME280;10712;52.944;9.098;2024-02-21T09:29:09;101483.94;;;17.06;75.51
21109;BME280;10712;52.944;9.098;2024-02-21T09:31:35;101484.97;;;17.16;75.43
21109;BME280;10712;52.944;9.098;2024-02-21T09:34:01;101474.84;;;17.20;75.05
21109;BME280;10712;52.944;9.098;2024-02-21T09:36:27;101484.66;;;17.08;75.25
21109;BME280;10712;52.944;9.098;2024-02-21T09:38:53;101476.16;;;17.14;75.02
21109;BME280;10712;52.944;9.098;2024-02-21T09:41:27;101467.94;;;17.28;74.52
21109;BME280;10712;52.944;9.098;2024-02-21T09:43:55;101468.50;;;17.08;74.91
21109;BME280;10712;52.944;9.098;2024-02-21T09:49:30;101467.63;;;17.20;74.21
21109;BME280;10712;52.944;9.098;2024-02-21T09:52:02;101465.41;;;17.14;74.29
21109;BME280;10712;52.944;9.098;2024-02-21T09:54:30;101462.16;;;17.09;74.24
21109;BME280;10712;52.944;9.098;2024-02-21T09:57:03;101459.47;;;17.09;74.40
21109;BME280;10712;52.944;9.098;2024-02-21T09:59:32;101453.38;;;17.07;74.38
21109;BME280;10712;52.944;9.098;2024-02-21T10:01:59;101455.50;;;17.02;74.38
21109;BME280;10712;52.944;9.098;2024-02-21T10:04:29;101453.78;;;17.14;73.63
21109;BME280;10712;52.944;9.098;2024-02-21T10:06:55;101449.47;;;17.11;73.73
21109;BME280;10712;52.944;9.098;2024-02-21T10:09:25;101446.81;;;17.22;73.45
21109;BME280;10712;52.944;9.098;2024-02-21T10:12:06;101437.28;;;17.29;73.24
21109;BME280;10712;52.944;9.098;2024-02-21T10:14:32;101429.19;;;17.18;73.31
21109;BME280;10712;52.944;9.098;2024-02-21T10:16:58;101429.94;;;17.20;73.47
21109;BME280;10712;52.944;9.098;2024-02-21T10:19:24;101419.16;;;17.20;73.53
21109;BME280;10712;52.944;9.098;2024-02-21T10:22:10;101414.78;;;17.30;73.26
21109;BME280;10712;52.944;9.098;2024-02-21T10:24:37;101414.66;;;17.32;73.35
21109;BME280;10712;52.944;9.098;2024-02-21T10:27:09;101412.09;;;17.30;73.27
21109;BME280;10712;52.944;9.098;2024-02-21T10:29:37;101418.72;;;17.38;73.03
21109;BME280;10712;52.944;9.098;2024-02-21T10:32:13;101412.25;;;17.40;72.85
21109;BME280;10712;52.944;9.098;2024-02-21T10:34:42;101407.47;;;17.44;72.26
21109;BME280;10712;52.944;9.098;2024-02-21T10:37:09;101406.41;;;17.46;71.98
21109;BME280;10712;52.944;9.098;2024-02-21T10:39:41;101397.97;;;17.51;71.54
21109;BME280;10712;52.944;9.098;2024-02-21T10:42:10;101385.31;;;17.40;72.07
21109;BME280;10712;52.944;9.098;2024-02-21T10:44:38;101387.19;;;17.51;72.10
21109;BME280;10712;52.944;9.098;2024-02-21T10:47:09;101388.31;;;17.24;70.56
21109;BME280;10712;52.944;9.098;2024-02-21T10:49:42;101389.38;;;17.46;70.43
21109;BME280;10712;52.944;9.098;2024-02-21T10:52:52;101373.59;;;17.52;70.76
21109;BME280;10712;52.944;9.098;2024-02-21T10:55:38;101386.31;;;17.50;71.05
21109;BME280;10712;52.944;9.098;2024-02-21T10:58:09;101369.06;;;17.53;71.36
21109;BME280;10712;52.944;9.098;2024-02-21T11:00:37;101378.44;;;17.71;71.32
21109;BME280;10712;52.944;9.098;2024-02-21T11:03:03;101375.63;;;17.73;70.96
21109;BME280;10712;52.944;9.098;2024-02-21T11:05:31;101374.06;;;17.81;70.43
21109;BME280;10712;52.944;9.098;2024-02-21T11:07:58;101371.84;;;17.86;69.45
21109;BME280;10712;52.944;9.098;2024-02-21T11:10:25;101366.72;;;17.83;69.46
21109;BME280;10712;52.944;9.098;2024-02-21T11:13:08;101362.31;;;17.93;69.26
21109;BME280;10712;52.944;9.098;2024-02-21T11:15:34;101357.16;;;17.90;69.91
21109;BME280;10712;52.944;9.098;2024-02-21T11:18:00;101348.59;;;17.96;69.79
21109;BME280;10712;52.944;9.098;2024-02-21T11:20:36;101349.22;;;18.11;69.25
21109;BME280;10712;52.944;9.098;2024-02-21T11:23:03;101339.38;;;17.99;68.29
21109;BME280;10712;52.944;9.098;2024-02-21T11:25:29;101333.38;;;18.06;68.36
21109;BME280;10712;52.944;9.098;2024-02-21T11:28:03;101334.97;;;18.20;67.79
21109;BME280;10712;52.944;9.098;2024-02-21T11:30:35;101335.34;;;18.16;67.87
21109;BME280;10712;52.944;9.098;2024-02-21T11:33:06;101321.38;;;18.10;67.80
21109;BME280;10712;52.944;9.098;2024-02-21T11:35:36;101314.38;;;18.19;67.45
21109;BME280;10712;52.944;9.098;2024-02-21T11:38:12;101310.34;;;18.14;67.24
21109;BME280;10712;52.944;9.098;2024-02-21T11:40:46;101304.72;;;18.17;67.72
21109;BME280;10712;52.944;9.098;2024-02-21T11:43:12;101294.91;;;18.16;67.66
21109;BME280;10712;52.944;9.098;2024-02-21T11:45:38;101291.59;;;18.01;68.20
21109;BME280;10712;52.944;9.098;2024-02-21T11:48:08;101287.91;;;18.13;67.66
21109;BME280;10712;52.944;9.098;2024-02-21T11:50:37;101278.72;;;18.16;67.12
21109;BME280;10712;52.944;9.098;2024-02-21T11:53:05;101267.91;;;18.27;66.75
21109;BME280;10712;52.944;9.098;2024-02-21T11:55:31;101256.75;;;18.20;66.87
21109;BME280;10712;52.944;9.098;2024-02-21T11:57:57;101267.38;;;18.33;66.09
21109;BME280;10712;52.944;9.098;2024-02-21T12:00:23;101258.09;;;18.26;66.26
21109;BME280;10712;52.944;9.098;2024-02-21T12:02:52;101259.34;;;18.22;66.69
21109;BME280;10712;52.944;9.098;2024-02-21T12:05:20;101247.06;;;18.29;65.65
21109;BME280;10712;52.944;9.098;2024-02-21T12:07:46;101261.56;;;18.17;65.69
21109;BME280;10712;52.944;9.098;2024-02-21T12:10:13;101253.44;;;18.28;65.44
21109;BME280;10712;52.944;9.098;2024-02-21T12:12:40;101251.19;;;18.33;65.33
21109;BME280;10712;52.944;9.098;2024-02-21T12:15:07;101251.72;;;18.27;64.25
21109;BME280;10712;52.944;9.098;2024-02-21T12:17:36;101248.53;;;18.22;64.34
21109;BME280;10712;52.944;9.098;2024-02-21T12:20:07;101253.47;;;18.17;64.56
21109;BME280;10712;52.944;9.098;2024-02-21T12:22:38;101254.28;;;18.28;63.65
21109;BME280;10712;52.944;9.098;2024-02-21T12:25:30;101241.78;;;18.27;64.19
21109;BME280;10712;52.944;9.098;2024-02-21T12:27:56;101233.31;;;18.32;63.79
21109;BME280;10712;52.944;9.098;2024-02-21T12:30:22;101230.13;;;18.38;63.46
21109;BME280;10712;52.944;9.098;2024-02-21T12:32:48;101228.63;;;18.45;62.43
21109;BME280;10712;52.944;9.098;2024-02-21T12:35:14;101227.16;;;18.41;63.01
21109;BME280;10712;52.944;9.098;2024-02-21T12:37:40;101230.81;;;18.51;62.60
21109;BME280;10712;52.944;9.098;2024-02-21T12:40:08;101221.50;;;18.44;63.28
21109;BME280;10712;52.944;9.098;2024-02-21T12:42:36;101215.50;;;18.40;63.74
21109;BME280;10712;52.944;9.098;2024-02-21T12:45:02;101215.84;;;18.47;64.06
21109;BME280;10712;52.944;9.098;2024-02-21T12:47:29;101213.03;;;18.48;63.80
21109;BME280;10712;52.944;9.098;2024-02-21T12:49:55;101209.72;;;18.56;63.54
21109;BME280;10712;52.944;9.098;2024-02-21T12:52:21;101194.59;;;18.54;63.51
21109;BME280;10712;52.944;9.098;2024-02-21T12:54:47;101185.50;;;18.66;63.44
21109;BME280;10712;52.944;9.098;2024-02-21T12:57:13;101173.78;;;18.56;63.28